Time,TemperatureF,DewpointF,PressureIn,WindDirection,WindDirectionDegrees,WindSpeedMPH,WindSpeedGustMPH,Humidity,HourlyPrecipIn,Conditions,Clouds,dailyrainin,SoftwareType,DateUTC
2013-04-01 00:02:00,43.0,39.0,29.93,West,278,0.0,-999.0,86,-99.99,,,-99.99,,2013-04-01 05:02:00,
2013-04-01 00:12:00,43.0,39.0,29.93,West,278,0.0,-999.0,86,-99.99,,,-99.99,,2013-04-01 05:12:00,
2013-04-01 00:22:00,43.0,39.0,29.92,West,279,0.0,-999.0,87,-99.99,,,-99.99,,2013-04-01 05:22:00,
2013-04-01 00:32:00,42.0,39.0,29.92,West,279,0.0,-999.0,88,-99.99,,,-99.99,,2013-04-01 05:32:00,
2013-04-01 00:42:00,42.0,39.0,29.92,West,279,0.0,-999.0,88,-99.99,,,-99.99,,2013-04-01 05:42:00,
2013-04-01 00:52:00,42.0,39.0,29.93,West,278,0.0,-999.0,88,-99.99,,,-99.99,,2013-04-01 05:52:00,
2013-04-01 01:02:00,41.0,38.0,29.93,West,278,0.0,-999.0,89,-99.99,,,-99.99,,2013-04-01 06:02:00,
2013-04-01 01:12:00,41.0,38.0,29.93,West,278,0.0,-999.0,89,-99.99,,,-99.99,,2013-04-01 06:12:00,
2013-04-01 01:22:00,41.0,38.0,29.93,West,279,0.0,-999.0,89,-99.99,,,-99.99,,2013-04-01 06:22:00,
2013-04-01 01:33:00,41.0,38.0,29.93,West,279,0.0,-999.0,89,-99.99,,,-99.99,,2013-04-01 06:33:00,
2013-04-01 01:42:00,41.0,38.0,29.93,West,279,0.0,-999.0,89,-99.99,,,-99.99,,2013-04-01 06:42:00,
2013-04-01 01:52:00,40.0,37.0,29.94,West,279,0.0,-999.0,90,-99.99,,,-99.99,,2013-04-01 06:52:00,
2013-04-01 02:02:00,40.0,38.0,29.94,West,279,0.0,-999.0,91,-99.99,,,-99.99,,2013-04-01 07:02:00,
2013-04-01 02:12:00,40.0,38.0,29.94,West,279,0.0,-999.0,91,-99.99,,,-99.99,,2013-04-01 07:12:00,
2013-04-01 02:22:00,40.0,37.0,29.94,West,279,0.0,-999.0,90,-99.99,,,-99.99,,2013-04-01 07:22:00,
2013-04-01 02:32:00,39.0,37.0,29.95,West,279,0.0,-999.0,91,-99.99,,,-99.99,,2013-04-01 07:32:00,
2013-04-01 02:42:00,39.0,37.0,29.95,West,279,0.0,-999.0,91,-99.99,,,-99.99,,2013-04-01 07:42:00,
2013-04-01 02:53:00,39.0,37.0,29.95,West,279,0.0,-999.0,91,-99.99,,,-99.99,,2013-04-01 07:53:00,
2013-04-01 03:02:00,39.0,37.0,29.95,West,279,0.0,-999.0,91,-99.99,,,-99.99,,2013-04-01 08:02:00,
2013-04-01 03:12:00,39.0,37.0,29.95,West,279,0.0,-999.0,91,-99.99,,,-99.99,,2013-04-01 08:12:00,
2013-04-01 03:22:00,38.0,36.0,29.95,West,279,0.0,-999.0,91,-99.99,,,-99.99,,2013-04-01 08:22:00,
2013-04-01 03:32:00,38.0,36.0,29.96,West,278,0.0,-999.0,91,-99.99,,,-99.99,,2013-04-01 08:32:00,
2013-04-01 03:43:00,38.0,36.0,29.96,West,278,0.0,-999.0,91,-99.99,,,-99.99,,2013-04-01 08:43:00,
2013-04-01 03:53:00,38.0,36.0,29.96,West,278,0.0,-999.0,92,-99.99,,,-99.99,,2013-04-01 08:53:00,
2013-04-01 04:02:00,38.0,36.0,29.97,West,279,0.0,-999.0,92,-99.99,,,-99.99,,2013-04-01 09:02:00,
2013-04-01 04:12:00,38.0,36.0,29.97,West,279,0.0,-999.0,92,-99.99,,,-99.99,,2013-04-01 09:12:00,
2013-04-01 04:22:00,37.0,35.0,29.97,West,279,0.0,-999.0,92,-99.99,,,-99.99,,2013-04-01 09:22:00,
2013-04-01 04:33:00,37.0,35.0,29.98,West,279,0.0,-999.0,92,-99.99,,,-99.99,,2013-04-01 09:33:00,
2013-04-01 04:42:00,37.0,35.0,29.98,West,279,0.0,-999.0,92,-99.99,,,-99.99,,2013-04-01 09:42:00,
2013-04-01 04:53:00,37.0,35.0,29.98,West,279,0.0,-999.0,92,-99.99,,,-99.99,,2013-04-01 09:53:00,
2013-04-01 05:03:00,37.0,35.0,29.98,West,279,0.0,-999.0,93,-99.99,,,-99.99,,2013-04-01 10:03:00,
2013-04-01 05:12:00,37.0,35.0,29.98,West,279,0.0,-999.0,93,-99.99,,,-99.99,,2013-04-01 10:12:00,
2013-04-01 05:23:00,37.0,35.0,29.99,West,279,0.0,-999.0,92,-99.99,,,-99.99,,2013-04-01 10:23:00,
2013-04-01 05:33:00,37.0,35.0,29.99,West,279,0.0,-999.0,93,-99.99,,,-99.99,,2013-04-01 10:33:00,
2013-04-01 05:42:00,37.0,35.0,29.99,West,279,0.0,-999.0,93,-99.99,,,-99.99,,2013-04-01 10:42:00,
2013-04-01 05:53:00,37.0,35.0,30.01,West,279,0.0,-999.0,92,-99.99,,,-99.99,,2013-04-01 10:53:00,
2013-04-01 06:03:00,36.0,34.0,30.02,West,279,0.0,-999.0,92,-99.99,,,-99.99,,2013-04-01 11:03:00,
2013-04-01 06:12:00,36.0,34.0,30.02,West,279,0.0,-999.0,92,-99.99,,,-99.99,,2013-04-01 11:12:00,
2013-04-01 06:23:00,36.0,34.0,30.03,West,279,0.0,-999.0,92,-99.99,,,-99.99,,2013-04-01 11:23:00,
2013-04-01 06:33:00,36.0,34.0,30.03,West,278,0.0,-999.0,93,-99.99,,,-99.99,,2013-04-01 11:33:00,
2013-04-01 06:42:00,36.0,34.0,30.03,West,278,0.0,-999.0,93,-99.99,,,-99.99,,2013-04-01 11:42:00,
2013-04-01 06:53:00,36.0,34.0,30.03,West,279,0.0,-999.0,92,-99.99,,,-99.99,,2013-04-01 11:53:00,
2013-04-01 07:02:00,35.0,33.0,30.04,West,278,0.0,-999.0,93,-99.99,,,-99.99,,2013-04-01 12:02:00,
2013-04-01 07:12:00,35.0,33.0,30.04,West,278,0.0,-999.0,93,-99.99,,,-99.99,,2013-04-01 12:12:00,
2013-04-01 07:22:00,35.0,33.0,30.05,West,278,0.0,-999.0,93,-99.99,,,-99.99,,2013-04-01 12:22:00,
2013-04-01 07:32:00,35.0,33.0,30.05,West,279,0.0,-999.0,93,-99.99,,,-99.99,,2013-04-01 12:32:00,
2013-04-01 07:42:00,35.0,33.0,30.05,West,279,0.0,-999.0,93,-99.99,,,-99.99,,2013-04-01 12:42:00,
2013-04-01 07:53:00,35.0,33.0,30.06,West,280,0.0,-999.0,93,-99.99,,,-99.99,,2013-04-01 12:53:00,
2013-04-01 08:02:00,37.0,35.0,30.07,West,278,0.0,-999.0,94,-99.99,,,-99.99,,2013-04-01 13:02:00,
2013-04-01 08:12:00,37.0,35.0,30.07,West,278,0.0,-999.0,94,-99.99,,,-99.99,,2013-04-01 13:12:00,
2013-04-01 08:22:00,38.0,36.0,30.08,WNW,282,0.0,-999.0,94,-99.99,,,-99.99,,2013-04-01 13:22:00,
2013-04-01 08:32:00,39.0,37.0,30.09,WNW,282,0.0,-999.0,94,-99.99,,,-99.99,,2013-04-01 13:32:00,
2013-04-01 08:42:00,39.0,37.0,30.09,WNW,282,0.0,-999.0,94,-99.99,,,-99.99,,2013-04-01 13:42:00,
2013-04-01 08:52:00,41.0,39.0,30.10,WNW,282,0.0,-999.0,94,-99.99,,,-99.99,,2013-04-01 13:52:00,
2013-04-01 09:03:00,43.0,41.0,30.10,WNW,282,0.0,-999.0,94,-99.99,,,-99.99,,2013-04-01 14:03:00,
2013-04-01 09:12:00,43.0,41.0,30.10,WNW,282,0.0,-999.0,94,-99.99,,,-99.99,,2013-04-01 14:12:00,
2013-04-01 09:22:00,45.0,43.0,30.11,SW,216,0.0,-999.0,92,-99.99,,,-99.99,,2013-04-01 14:22:00,
2013-04-01 09:32:00,49.0,38.0,30.11,NE,40,1.0,-999.0,66,-99.99,,,-99.99,,2013-04-01 14:32:00,
2013-04-01 09:42:00,49.0,38.0,30.11,NE,40,1.0,-999.0,66,-99.99,,,-99.99,,2013-04-01 14:42:00,
2013-04-01 09:53:00,51.0,37.0,30.11,NE,41,3.0,-999.0,58,-99.99,,,-99.99,,2013-04-01 14:53:00,
2013-04-01 10:03:00,51.0,35.0,30.11,ENE,71,4.0,-999.0,54,-99.99,,,-99.99,,2013-04-01 15:03:00,
2013-04-01 10:13:00,51.0,35.0,30.11,ENE,71,4.0,-999.0,54,-99.99,,,-99.99,,2013-04-01 15:13:00,
2013-04-01 10:22:00,52.0,36.0,30.11,ENE,69,3.0,-999.0,55,-99.99,,,-99.99,,2013-04-01 15:22:00,
2013-04-01 10:34:00,53.0,38.0,30.11,East,81,3.0,-999.0,56,-99.99,,,-99.99,,2013-04-01 15:34:00,
2013-04-01 10:43:00,53.0,38.0,30.11,East,81,3.0,-999.0,56,-99.99,,,-99.99,,2013-04-01 15:43:00,
2013-04-01 10:54:00,53.0,37.0,30.11,ENE,57,4.0,-999.0,54,-99.99,,,-99.99,,2013-04-01 15:54:00,
2013-04-01 11:03:00,54.0,36.0,30.11,North,5,3.0,-999.0,51,-99.99,,,-99.99,,2013-04-01 16:03:00,
2013-04-01 11:13:00,54.0,36.0,30.11,North,5,3.0,-999.0,51,-99.99,,,-99.99,,2013-04-01 16:13:00,
2013-04-01 11:23:00,54.0,36.0,30.11,NNE,14,2.0,-999.0,50,-99.99,,,-99.99,,2013-04-01 16:23:00,
2013-04-01 11:33:00,55.0,37.0,30.12,ENE,71,2.0,-999.0,51,-99.99,,,-99.99,,2013-04-01 16:33:00,
2013-04-01 11:42:00,55.0,37.0,30.12,ENE,71,2.0,-999.0,51,-99.99,,,-99.99,,2013-04-01 16:42:00,
2013-04-01 11:53:00,56.0,36.0,30.12,NE,49,2.0,-999.0,47,-99.99,,,-99.99,,2013-04-01 16:53:00,
2013-04-01 12:03:00,56.0,37.0,30.11,East,94,2.0,-999.0,49,-99.99,,,-99.99,,2013-04-01 17:03:00,
2013-04-01 12:12:00,56.0,37.0,30.11,East,94,2.0,-999.0,49,-99.99,,,-99.99,,2013-04-01 17:12:00,
2013-04-01 12:22:00,57.0,37.0,30.11,East,82,2.0,-999.0,47,-99.99,,,-99.99,,2013-04-01 17:22:00,
2013-04-01 12:32:00,57.0,37.0,30.11,East,82,2.0,-999.0,47,-99.99,,,-99.99,,2013-04-01 17:32:00,
2013-04-01 12:42:00,57.0,37.0,30.11,East,82,2.0,-999.0,47,-99.99,,,-99.99,,2013-04-01 17:42:00,
2013-04-01 12:53:00,59.0,37.0,30.11,NE,49,0.0,-999.0,43,-99.99,,,-99.99,,2013-04-01 17:53:00,
2013-04-01 13:02:00,59.0,39.0,30.11,SE,127,2.0,-999.0,48,-99.99,,,-99.99,,2013-04-01 18:02:00,
2013-04-01 13:12:00,59.0,39.0,30.11,SE,127,2.0,-999.0,48,-99.99,,,-99.99,,2013-04-01 18:12:00,
2013-04-01 13:22:00,60.0,40.0,30.11,North,355,1.0,-999.0,48,-99.99,,,-99.99,,2013-04-01 18:22:00,
2013-04-01 13:32:00,60.0,38.0,30.10,North,355,2.0,-999.0,44,-99.99,,,-99.99,,2013-04-01 18:32:00,
2013-04-01 13:42:00,60.0,38.0,30.10,North,355,2.0,-999.0,44,-99.99,,,-99.99,,2013-04-01 18:42:00,
2013-04-01 13:53:00,60.0,38.0,30.10,NNW,333,1.0,-999.0,44,-99.99,,,-99.99,,2013-04-01 18:53:00,
2013-04-01 14:03:00,60.0,38.0,30.09,North,5,2.0,-999.0,44,-99.99,,,-99.99,,2013-04-01 19:03:00,
2013-04-01 14:12:00,60.0,38.0,30.09,North,5,2.0,-999.0,44,-99.99,,,-99.99,,2013-04-01 19:12:00,
2013-04-01 14:23:00,62.0,41.0,30.09,ESE,114,1.0,-999.0,46,-99.99,,,-99.99,,2013-04-01 19:23:00,
2013-04-01 14:32:00,63.0,40.0,30.08,WNW,289,1.0,-999.0,42,-99.99,,,-99.99,,2013-04-01 19:32:00,
2013-04-01 14:42:00,63.0,40.0,30.08,WNW,289,1.0,-999.0,42,-99.99,,,-99.99,,2013-04-01 19:42:00,
2013-04-01 14:53:00,62.0,40.0,30.08,WNW,298,3.0,-999.0,44,-99.99,,,-99.99,,2013-04-01 19:53:00,
2013-04-01 15:02:00,62.0,41.0,30.07,West,275,2.0,-999.0,46,-99.99,,,-99.99,,2013-04-01 20:02:00,
2013-04-01 15:12:00,62.0,41.0,30.07,West,275,2.0,-999.0,46,-99.99,,,-99.99,,2013-04-01 20:12:00,
2013-04-01 15:22:00,62.0,39.0,30.07,NE,46,2.0,-999.0,43,-99.99,,,-99.99,,2013-04-01 20:22:00,
2013-04-01 15:32:00,62.0,40.0,30.07,NE,53,0.0,-999.0,45,-99.99,,,-99.99,,2013-04-01 20:32:00,
2013-04-01 15:42:00,62.0,40.0,30.07,NE,53,0.0,-999.0,45,-99.99,,,-99.99,,2013-04-01 20:42:00,
2013-04-01 15:52:00,63.0,41.0,30.07,NW,316,0.0,-999.0,44,-99.99,,,-99.99,,2013-04-01 20:52:00,
2013-04-01 16:02:00,63.0,40.0,30.06,West,263,4.0,-999.0,42,-99.99,,,-99.99,,2013-04-01 21:02:00,
2013-04-01 16:12:00,63.0,40.0,30.06,West,263,4.0,-999.0,42,-99.99,,,-99.99,,2013-04-01 21:12:00,
2013-04-01 16:22:00,64.0,40.0,30.07,West,271,3.0,-999.0,41,-99.99,,,-99.99,,2013-04-01 21:22:00,
2013-04-01 16:32:00,64.0,40.0,30.07,WNW,298,3.0,-999.0,42,-99.99,,,-99.99,,2013-04-01 21:32:00,
2013-04-01 16:43:00,64.0,40.0,30.07,WNW,298,3.0,-999.0,42,-99.99,,,-99.99,,2013-04-01 21:43:00,
2013-04-01 16:53:00,64.0,40.0,30.07,WNW,288,4.0,-999.0,42,-99.99,,,-99.99,,2013-04-01 21:53:00,
2013-04-01 17:02:00,64.0,42.0,30.07,West,281,5.0,-999.0,44,-99.99,,,-99.99,,2013-04-01 22:02:00,
2013-04-01 17:12:00,64.0,42.0,30.07,West,281,5.0,-999.0,44,-99.99,,,-99.99,,2013-04-01 22:12:00,
2013-04-01 17:22:00,63.0,40.0,30.07,NNW,347,4.0,-999.0,42,-99.99,,,-99.99,,2013-04-01 22:22:00,
2013-04-01 17:33:00,62.0,39.0,30.07,WNW,286,3.0,-999.0,43,-99.99,,,-99.99,,2013-04-01 22:33:00,
2013-04-01 17:43:00,62.0,39.0,30.07,WNW,286,3.0,-999.0,43,-99.99,,,-99.99,,2013-04-01 22:43:00,
2013-04-01 17:52:00,62.0,40.0,30.07,NW,306,3.0,-999.0,45,-99.99,,,-99.99,,2013-04-01 22:52:00,
2013-04-01 18:02:00,61.0,40.0,30.07,NNW,337,2.0,-999.0,46,-99.99,,,-99.99,,2013-04-01 23:02:00,
2013-04-01 18:12:00,61.0,40.0,30.07,NNW,337,2.0,-999.0,46,-99.99,,,-99.99,,2013-04-01 23:12:00,
2013-04-01 18:23:00,60.0,39.0,30.07,WNW,298,2.0,-999.0,46,-99.99,,,-99.99,,2013-04-01 23:23:00,
2013-04-01 18:32:00,60.0,41.0,30.08,NNE,33,0.0,-999.0,49,-99.99,,,-99.99,,2013-04-01 23:32:00,
2013-04-01 18:42:00,60.0,41.0,30.08,NNE,33,0.0,-999.0,49,-99.99,,,-99.99,,2013-04-01 23:42:00,
2013-04-01 18:53:00,60.0,41.0,30.08,WNW,292,0.0,-999.0,49,-99.99,,,-99.99,,2013-04-01 23:53:00,
2013-04-01 19:02:00,59.0,43.0,30.10,NW,321,1.0,-999.0,56,-99.99,,,-99.99,,2013-04-02 00:02:00,
2013-04-01 19:12:00,59.0,43.0,30.10,NW,321,1.0,-999.0,56,-99.99,,,-99.99,,2013-04-02 00:12:00,
2013-04-01 19:22:00,56.0,44.0,30.10,West,281,0.0,-999.0,63,-99.99,,,-99.99,,2013-04-02 00:22:00,
2013-04-01 19:33:00,54.0,45.0,30.09,NNE,20,1.0,-999.0,71,-99.99,,,-99.99,,2013-04-02 00:33:00,
2013-04-01 19:42:00,54.0,45.0,30.09,NNE,20,1.0,-999.0,71,-99.99,,,-99.99,,2013-04-02 00:42:00,
2013-04-01 19:53:00,52.0,44.0,30.08,North,360,0.0,-999.0,75,-99.99,,,-99.99,,2013-04-02 00:53:00,
2013-04-01 20:02:00,52.0,47.0,30.07,North,360,0.0,-999.0,82,-99.99,,,-99.99,,2013-04-02 01:02:00,
2013-04-01 20:12:00,52.0,47.0,30.07,North,360,0.0,-999.0,82,-99.99,,,-99.99,,2013-04-02 01:12:00,
2013-04-01 20:22:00,51.0,47.0,30.09,WNW,290,0.0,-999.0,86,-99.99,,,-99.99,,2013-04-02 01:22:00,
2013-04-01 20:32:00,50.0,46.0,30.10,WNW,290,0.0,-999.0,87,-99.99,,,-99.99,,2013-04-02 01:32:00,
2013-04-01 20:42:00,50.0,46.0,30.10,WNW,290,0.0,-999.0,87,-99.99,,,-99.99,,2013-04-02 01:42:00,
2013-04-01 20:53:00,50.0,47.0,30.09,WNW,290,0.0,-999.0,88,-99.99,,,-99.99,,2013-04-02 01:53:00,
2013-04-01 21:02:00,49.0,46.0,30.10,WNW,290,0.0,-999.0,89,-99.99,,,-99.99,,2013-04-02 02:02:00,
2013-04-01 21:12:00,49.0,46.0,30.10,WNW,290,0.0,-999.0,89,-99.99,,,-99.99,,2013-04-02 02:12:00,
2013-04-01 21:22:00,49.0,46.0,30.11,WNW,284,0.0,-999.0,90,-99.99,,,-99.99,,2013-04-02 02:22:00,
2013-04-01 21:32:00,49.0,46.0,30.10,WNW,284,0.0,-999.0,89,-99.99,,,-99.99,,2013-04-02 02:32:00,
2013-04-01 21:42:00,49.0,46.0,30.10,WNW,284,0.0,-999.0,89,-99.99,,,-99.99,,2013-04-02 02:42:00,
2013-04-01 21:53:00,48.0,45.0,30.11,WNW,284,0.0,-999.0,90,-99.99,,,-99.99,,2013-04-02 02:53:00,
2013-04-01 22:02:00,49.0,46.0,30.13,WNW,284,0.0,-999.0,91,-99.99,,,-99.99,,2013-04-02 03:02:00,
2013-04-01 22:12:00,49.0,46.0,30.13,WNW,284,0.0,-999.0,91,-99.99,,,-99.99,,2013-04-02 03:12:00,
2013-04-01 22:22:00,49.0,46.0,30.13,WNW,284,0.0,-999.0,90,-99.99,,,-99.99,,2013-04-02 03:22:00,
2013-04-01 22:33:00,48.0,43.0,30.14,South,184,0.0,-999.0,84,-99.99,,,-99.99,,2013-04-02 03:33:00,
2013-04-01 22:43:00,48.0,43.0,30.14,South,184,0.0,-999.0,84,-99.99,,,-99.99,,2013-04-02 03:43:00,
2013-04-01 22:53:00,48.0,41.0,30.15,South,189,0.0,-999.0,76,-99.99,,,-99.99,,2013-04-02 03:53:00,
2013-04-01 23:03:00,48.0,39.0,30.14,South,189,0.0,-999.0,72,-99.99,,,-99.99,,2013-04-02 04:03:00,
2013-04-01 23:13:00,48.0,39.0,30.14,South,189,0.0,-999.0,72,-99.99,,,-99.99,,2013-04-02 04:13:00,
2013-04-01 23:22:00,48.0,40.0,30.15,South,188,0.0,-999.0,75,-99.99,,,-99.99,,2013-04-02 04:22:00,
2013-04-01 23:32:00,48.0,40.0,30.15,South,188,0.0,-999.0,75,-99.99,,,-99.99,,2013-04-02 04:32:00,
2013-04-01 23:43:00,48.0,40.0,30.15,South,188,0.0,-999.0,75,-99.99,,,-99.99,,2013-04-02 04:43:00,
2013-04-01 23:53:00,46.0,42.0,30.16,South,188,0.0,-999.0,86,-99.99,,,-99.99,,2013-04-02 04:53:00,